Time,TemperatureF,DewpointF,PressureIn,WindDirection,WindDirectionDegrees,WindSpeedMPH,WindSpeedGustMPH,Humidity,HourlyPrecipIn,Conditions,Clouds,dailyrainin,SoftwareType,DateUTC
2013-01-15 00:04:00,39.0,29.0,30.17,ENE,60,2.0,9.0,67,0.00,,,0.00,weatherlink.com 1.10,2013-01-15 06:04:00,
2013-01-15 00:19:00,39.0,28.0,30.17,NE,50,4.0,15.0,66,0.00,,,0.00,weatherlink.com 1.10,2013-01-15 06:19:00,
2013-01-15 00:34:00,39.0,28.0,30.17,NNE,28,7.0,10.0,66,0.00,,,0.00,weatherlink.com 1.10,2013-01-15 06:34:00,
2013-01-15 00:49:00,38.9,28.0,30.18,NNE,28,6.0,9.0,66,0.00,,,0.00,weatherlink.com 1.10,2013-01-15 06:49:00,
2013-01-15 01:04:00,38.8,28.0,30.18,North,6,7.0,10.0,66,0.00,,,0.00,weatherlink.com 1.10,2013-01-15 07:04:00,
2013-01-15 01:19:00,38.8,29.0,30.17,NNE,19,4.0,9.0,67,0.00,,,0.00,weatherlink.com 1.10,2013-01-15 07:19:00,
2013-01-15 01:34:00,38.7,29.0,30.16,NNE,16,3.0,8.0,67,0.00,,,0.00,weatherlink.com 1.10,2013-01-15 07:34:00,
2013-01-15 01:49:00,38.8,29.0,30.16,NNE,23,4.0,7.0,67,0.00,,,0.00,weatherlink.com 1.10,2013-01-15 07:49:00,
2013-01-15 02:04:00,38.8,28.0,30.16,NNE,16,4.0,8.0,66,0.00,,,0.00,weatherlink.com 1.10,2013-01-15 08:04:00,
2013-01-15 02:19:00,38.7,29.0,30.17,NE,55,4.0,11.0,67,0.00,,,0.00,weatherlink.com 1.10,2013-01-15 08:19:00,
2013-01-15 02:35:00,38.3,29.0,30.18,East,81,2.0,10.0,69,0.00,,,0.00,weatherlink.com 1.10,2013-01-15 08:35:00,
2013-01-15 02:50:00,37.4,30.0,30.17,NNE,18,9.0,13.0,74,0.00,,,0.00,weatherlink.com 1.10,2013-01-15 08:50:00,
2013-01-15 03:05:00,37.0,30.0,30.17,NNE,18,4.0,9.0,77,0.00,,,0.00,weatherlink.com 1.10,2013-01-15 09:05:00,
2013-01-15 03:20:00,36.6,30.0,30.17,North,6,8.0,14.0,78,0.00,,,0.00,weatherlink.com 1.10,2013-01-15 09:20:00,
2013-01-15 03:35:00,35.7,31.0,30.18,NNW,346,7.0,14.0,83,0.00,,,0.00,weatherlink.com 1.10,2013-01-15 09:35:00,
2013-01-15 03:50:00,34.9,31.0,30.16,NNE,23,7.0,13.0,87,0.00,,,0.00,weatherlink.com 1.10,2013-01-15 09:50:00,
2013-01-15 04:08:00,34.4,32.0,30.16,NNE,23,4.0,11.0,89,0.01,,,0.01,weatherlink.com 1.10,2013-01-15 10:08:00,
2013-01-15 04:20:00,34.1,32.0,30.16,ENE,69,9.0,10.0,90,0.01,,,0.01,weatherlink.com 1.10,2013-01-15 10:20:00,
2013-01-15 04:35:00,33.7,31.0,30.17,NE,39,3.0,7.0,91,0.02,,,0.02,weatherlink.com 1.10,2013-01-15 10:35:00,
2013-01-15 04:50:00,33.7,32.0,30.16,NNE,23,4.0,6.0,92,0.02,,,0.02,weatherlink.com 1.10,2013-01-15 10:50:00,
2013-01-15 05:05:00,33.7,32.0,30.16,NE,37,3.0,7.0,92,0.01,,,0.02,weatherlink.com 1.10,2013-01-15 11:05:00,
2013-01-15 05:20:00,33.8,32.0,30.16,NNW,347,6.0,10.0,92,0.01,,,0.02,weatherlink.com 1.10,2013-01-15 11:20:00,
2013-01-15 05:35:00,33.7,32.0,30.16,North,7,3.0,9.0,92,0.01,,,0.03,weatherlink.com 1.10,2013-01-15 11:35:00,
2013-01-15 05:50:00,33.5,32.0,30.16,North,2,6.0,10.0,92,0.01,,,0.03,weatherlink.com 1.10,2013-01-15 11:50:00,
2013-01-15 06:05:00,33.5,32.0,30.16,NNE,23,6.0,7.0,93,0.01,,,0.03,weatherlink.com 1.10,2013-01-15 12:05:00,
2013-01-15 06:20:00,33.4,32.0,30.17,NNE,12,7.0,9.0,93,0.01,,,0.03,weatherlink.com 1.10,2013-01-15 12:20:00,
2013-01-15 06:35:00,33.3,32.0,30.17,NNE,23,4.0,9.0,93,0.00,,,0.03,weatherlink.com 1.10,2013-01-15 12:35:00,
2013-01-15 06:50:00,33.0,31.0,30.17,NE,43,6.0,11.0,93,0.00,,,0.03,weatherlink.com 1.10,2013-01-15 12:50:00,
2013-01-15 07:05:00,33.2,31.0,30.17,NNE,15,7.0,9.0,93,0.00,,,0.03,weatherlink.com 1.10,2013-01-15 13:05:00,
2013-01-15 07:20:00,33.0,31.0,30.18,NNE,23,5.0,9.0,93,0.00,,,0.03,weatherlink.com 1.10,2013-01-15 13:20:00,
2013-01-15 07:35:00,33.0,31.0,30.19,NNE,23,8.0,11.0,93,0.00,,,0.03,weatherlink.com 1.10,2013-01-15 13:35:00,
2013-01-15 07:50:00,32.9,31.0,30.20,North,349,5.0,10.0,93,0.00,,,0.03,weatherlink.com 1.10,2013-01-15 13:50:00,
2013-01-15 08:05:00,32.6,31.0,30.20,NNW,328,9.0,11.0,93,0.00,,,0.03,weatherlink.com 1.10,2013-01-15 14:05:00,
2013-01-15 08:20:00,32.5,31.0,30.22,North,11,6.0,12.0,93,0.00,,,0.03,weatherlink.com 1.10,2013-01-15 14:20:00,
2013-01-15 08:35:00,32.7,31.0,30.23,North,353,4.0,10.0,93,0.00,,,0.03,weatherlink.com 1.10,2013-01-15 14:35:00,
2013-01-15 08:50:00,32.7,31.0,30.22,NNE,13,4.0,10.0,93,0.00,,,0.03,weatherlink.com 1.10,2013-01-15 14:50:00,
2013-01-15 09:05:00,32.9,31.0,30.21,North,359,5.0,10.0,94,0.00,,,0.03,weatherlink.com 1.10,2013-01-15 15:05:00,
2013-01-15 09:20:00,32.9,31.0,30.21,North,9,7.0,12.0,94,0.00,,,0.03,weatherlink.com 1.10,2013-01-15 15:20:00,
2013-01-15 09:35:00,32.8,31.0,30.21,North,6,5.0,15.0,93,0.00,,,0.03,weatherlink.com 1.10,2013-01-15 15:35:00,
2013-01-15 09:50:00,32.9,31.0,30.21,NNE,12,8.0,16.0,93,0.00,,,0.03,weatherlink.com 1.10,2013-01-15 15:50:00,
2013-01-15 10:05:00,33.0,31.0,30.22,North,358,7.0,14.0,93,0.00,,,0.03,weatherlink.com 1.10,2013-01-15 16:05:00,
2013-01-15 10:20:00,33.3,31.0,30.22,NNW,346,6.0,12.0,92,0.00,,,0.03,weatherlink.com 1.10,2013-01-15 16:20:00,
2013-01-15 10:35:00,33.5,32.0,30.23,NNW,347,2.0,14.0,92,0.00,,,0.03,weatherlink.com 1.10,2013-01-15 16:35:00,
2013-01-15 10:50:00,33.7,32.0,30.21,North,352,3.0,13.0,92,0.00,,,0.03,weatherlink.com 1.10,2013-01-15 16:50:00,
2013-01-15 11:05:00,34.1,32.0,30.22,NNW,331,5.0,14.0,92,0.00,,,0.03,weatherlink.com 1.10,2013-01-15 17:05:00,
2013-01-15 11:20:00,34.0,32.0,30.21,North,351,8.0,15.0,91,0.00,,,0.03,weatherlink.com 1.10,2013-01-15 17:20:00,
2013-01-15 11:35:00,33.9,32.0,30.21,North,349,6.0,16.0,92,0.00,,,0.03,weatherlink.com 1.10,2013-01-15 17:35:00,
2013-01-15 11:51:00,33.9,32.0,30.21,NNW,337,8.0,13.0,92,0.00,,,0.03,weatherlink.com 1.10,2013-01-15 17:51:00,
2013-01-15 12:06:00,34.1,32.0,30.20,NNW,330,10.0,15.0,93,0.00,,,0.03,weatherlink.com 1.10,2013-01-15 18:06:00,
2013-01-15 12:21:00,34.2,32.0,30.19,North,358,5.0,13.0,93,0.00,,,0.03,weatherlink.com 1.10,2013-01-15 18:21:00,
2013-01-15 12:36:00,34.3,33.0,30.19,NNW,340,8.0,13.0,93,0.00,,,0.03,weatherlink.com 1.10,2013-01-15 18:36:00,
2013-01-15 12:51:00,34.1,32.0,30.19,North,6,7.0,15.0,93,0.00,,,0.03,weatherlink.com 1.10,2013-01-15 18:51:00,
2013-01-15 13:06:00,34.4,32.0,30.18,North,357,5.0,14.0,92,0.00,,,0.03,weatherlink.com 1.10,2013-01-15 19:06:00,
2013-01-15 13:21:00,34.4,32.0,30.18,NW,322,5.0,14.0,92,0.00,,,0.03,weatherlink.com 1.10,2013-01-15 19:21:00,
2013-01-15 13:36:00,34.3,32.0,30.17,NNW,330,1.0,18.0,91,0.00,,,0.03,weatherlink.com 1.10,2013-01-15 19:36:00,
2013-01-15 13:51:00,34.8,33.0,30.17,NW,313,12.0,14.0,92,0.00,,,0.03,weatherlink.com 1.10,2013-01-15 19:51:00,
2013-01-15 14:06:00,34.8,33.0,30.17,NNW,330,4.0,15.0,91,0.00,,,0.03,weatherlink.com 1.10,2013-01-15 20:06:00,
2013-01-15 14:21:00,34.7,32.0,30.17,NNE,14,11.0,17.0,91,0.00,,,0.03,weatherlink.com 1.10,2013-01-15 20:21:00,
2013-01-15 14:36:00,35.0,32.0,30.17,NNW,339,13.0,17.0,90,0.00,,,0.03,weatherlink.com 1.10,2013-01-15 20:36:00,
2013-01-15 14:51:00,35.2,32.0,30.17,NNW,327,10.0,17.0,88,0.00,,,0.03,weatherlink.com 1.10,2013-01-15 20:51:00,
2013-01-15 15:06:00,35.2,32.0,30.17,NNW,330,5.0,19.0,87,0.00,,,0.03,weatherlink.com 1.10,2013-01-15 21:06:00,
2013-01-15 15:21:00,36.0,32.0,30.17,North,359,5.0,17.0,85,0.00,,,0.03,weatherlink.com 1.10,2013-01-15 21:21:00,
2013-01-15 15:36:00,36.3,32.0,30.18,NNE,14,6.0,17.0,84,0.00,,,0.03,weatherlink.com 1.10,2013-01-15 21:36:00,
2013-01-15 15:51:00,36.5,32.0,30.17,NNW,346,15.0,17.0,83,0.00,,,0.03,weatherlink.com 1.10,2013-01-15 21:51:00,
2013-01-15 16:06:00,37.1,32.0,30.19,NNW,346,5.0,12.0,82,0.00,,,0.03,weatherlink.com 1.10,2013-01-15 22:06:00,
2013-01-15 16:21:00,37.2,32.0,30.21,NNW,332,5.0,14.0,80,0.00,,,0.03,weatherlink.com 1.10,2013-01-15 22:21:00,
2013-01-15 16:36:00,37.6,32.0,30.21,NNW,339,5.0,13.0,80,0.00,,,0.03,weatherlink.com 1.10,2013-01-15 22:36:00,
2013-01-15 16:53:00,37.7,31.0,30.22,North,349,6.0,16.0,77,0.00,,,0.03,weatherlink.com 1.10,2013-01-15 22:53:00,
2013-01-15 17:08:00,37.8,31.0,30.23,NW,305,2.0,14.0,77,0.00,,,0.03,weatherlink.com 1.10,2013-01-15 23:08:00,
2013-01-15 17:21:00,37.5,30.0,30.23,NW,322,7.0,14.0,75,0.00,,,0.03,weatherlink.com 1.10,2013-01-15 23:21:00,
2013-01-15 17:36:00,37.3,30.0,30.22,NNW,338,9.0,13.0,74,0.00,,,0.03,weatherlink.com 1.10,2013-01-15 23:36:00,
2013-01-15 17:51:00,37.3,29.0,30.22,North,357,7.0,14.0,73,0.00,,,0.03,weatherlink.com 1.10,2013-01-15 23:51:00,
2013-01-15 18:06:00,37.3,29.0,30.22,NW,317,2.0,11.0,73,0.00,,,0.03,weatherlink.com 1.10,2013-01-16 00:06:00,
2013-01-15 18:21:00,37.3,30.0,30.23,NNW,329,5.0,11.0,74,0.00,,,0.03,weatherlink.com 1.10,2013-01-16 00:21:00,
2013-01-15 18:36:00,37.3,29.0,30.23,NNW,335,5.0,10.0,73,0.00,,,0.03,weatherlink.com 1.10,2013-01-16 00:36:00,
2013-01-15 18:51:00,37.3,30.0,30.23,NNW,332,3.0,9.0,74,0.00,,,0.03,weatherlink.com 1.10,2013-01-16 00:51:00,
2013-01-15 19:06:00,37.3,29.0,30.24,NNW,333,5.0,9.0,73,0.00,,,0.03,weatherlink.com 1.10,2013-01-16 01:06:00,
2013-01-15 19:21:00,37.2,30.0,30.24,NNW,343,4.0,9.0,74,0.00,,,0.03,weatherlink.com 1.10,2013-01-16 01:21:00,
2013-01-15 19:36:00,37.0,29.0,30.25,NNW,332,4.0,10.0,74,0.00,,,0.03,weatherlink.com 1.10,2013-01-16 01:36:00,
2013-01-15 19:51:00,36.0,29.0,30.25,NNW,343,4.0,8.0,76,0.00,,,0.03,weatherlink.com 1.10,2013-01-16 01:51:00,
2013-01-15 20:06:00,35.7,29.0,30.25,NNW,336,4.0,11.0,75,0.00,,,0.03,weatherlink.com 1.10,2013-01-16 02:06:00,
2013-01-15 20:21:00,35.4,28.0,30.24,NNW,330,5.0,11.0,73,0.00,,,0.03,weatherlink.com 1.10,2013-01-16 02:21:00,
2013-01-15 20:36:00,35.0,27.0,30.24,NW,314,6.0,11.0,72,0.00,,,0.03,weatherlink.com 1.10,2013-01-16 02:36:00,
2013-01-15 20:51:00,34.4,26.0,30.25,NW,322,4.0,9.0,72,0.00,,,0.03,weatherlink.com 1.10,2013-01-16 02:51:00,
2013-01-15 21:06:00,34.0,26.0,30.25,NNW,341,3.0,9.0,73,0.00,,,0.03,weatherlink.com 1.10,2013-01-16 03:06:00,
2013-01-15 21:21:00,33.8,26.0,30.25,NNW,334,5.0,10.0,73,0.00,,,0.03,weatherlink.com 1.10,2013-01-16 03:21:00,
2013-01-15 21:36:00,33.6,26.0,30.25,NW,324,4.0,10.0,73,0.00,,,0.03,weatherlink.com 1.10,2013-01-16 03:36:00,
2013-01-15 21:51:00,33.4,25.0,30.27,NW,309,2.0,10.0,72,0.00,,,0.03,weatherlink.com 1.10,2013-01-16 03:51:00,
2013-01-15 22:06:00,33.0,25.0,30.27,NNW,332,3.0,7.0,73,0.00,,,0.03,weatherlink.com 1.10,2013-01-16 04:06:00,
2013-01-15 22:21:00,32.6,26.0,30.26,NW,316,5.0,7.0,75,0.00,,,0.03,weatherlink.com 1.10,2013-01-16 04:21:00,
2013-01-15 22:36:00,32.2,25.0,30.27,NW,320,3.0,8.0,75,0.00,,,0.03,weatherlink.com 1.10,2013-01-16 04:36:00,
2013-01-15 22:51:00,31.9,25.0,30.27,North,356,6.0,9.0,76,0.00,,,0.03,weatherlink.com 1.10,2013-01-16 04:51:00,
2013-01-15 23:06:00,31.7,25.0,30.27,NW,312,1.0,8.0,75,0.00,,,0.03,weatherlink.com 1.10,2013-01-16 05:06:00,
2013-01-15 23:21:00,31.6,24.0,30.28,NNW,334,1.0,7.0,74,0.00,,,0.03,weatherlink.com 1.10,2013-01-16 05:21:00,
2013-01-15 23:36:00,31.1,24.0,30.28,NNW,332,2.0,4.0,75,0.00,,,0.03,weatherlink.com 1.10,2013-01-16 05:36:00,